CES8586 ZPPP-ZPLJ
Flight info
| Callsign | CES8586 |
|---|---|
| Flight time | 0h 43m |
| Altitude | 32100 |
| Route | GULO9W GULOT W146 BUBSU W162 CEH |
| Aircraft | B738/M-SDE2E3FGHIRWXY/LB1 |
Departure
| Time | 2026-04-28 13:47 |
|---|---|
| Airport | Kunming Changshui International Airport (ZPPP) |
Arrival
| Time | 2026-04-28 14:31 |
|---|---|
| Airport | Lijiang Sanyi International Airport (ZPLJ) |
| Time | Latitude | Longitude | Altitude | Speed | Heading |
|---|---|---|---|---|---|
| 2026-04-28 13:22 | 25.10343 | 102.92908 | 6912 ft | 0 kts | 107° |
| 2026-04-28 13:36 | 25.10346 | 102.92898 | 6912 ft | 2 kts | 107° |
| 2026-04-28 13:37 | 25.10351 | 102.92882 | 6912 ft | 2 kts | 108° |
| 2026-04-28 13:37 | 25.10355 | 102.92866 | 6912 ft | 2 kts | 107° |
| 2026-04-28 13:37 | 25.10360 | 102.92851 | 6912 ft | 2 kts | 108° |
| 2026-04-28 13:37 | 25.10365 | 102.92834 | 6912 ft | 2 kts | 131° |
| 2026-04-28 13:38 | 25.10377 | 102.92825 | 6912 ft | 2 kts | 164° |
| 2026-04-28 13:38 | 25.10386 | 102.92823 | 6912 ft | 0 kts | 184° |
| 2026-04-28 13:38 | 25.10393 | 102.92825 | 6912 ft | 0 kts | 186° |
| 2026-04-28 13:40 | 25.10392 | 102.92825 | 6912 ft | 1 kts | 186° |
| 2026-04-28 13:40 | 25.10363 | 102.92821 | 6912 ft | 6 kts | 186° |
| 2026-04-28 13:40 | 25.10313 | 102.92792 | 6912 ft | 12 kts | 218° |
| 2026-04-28 13:41 | 25.10266 | 102.92705 | 6912 ft | 13 kts | 263° |
| 2026-04-28 13:41 | 25.10286 | 102.92621 | 6912 ft | 10 kts | 307° |
| 2026-04-28 13:41 | 25.10326 | 102.92566 | 6912 ft | 7 kts | 309° |
| 2026-04-28 13:41 | 25.10356 | 102.92525 | 6912 ft | 5 kts | 309° |
| 2026-04-28 13:42 | 25.10378 | 102.92496 | 6912 ft | 4 kts | 309° |
| 2026-04-28 13:42 | 25.10409 | 102.92452 | 6912 ft | 10 kts | 308° |
| 2026-04-28 13:42 | 25.10469 | 102.92369 | 6912 ft | 12 kts | 309° |
| 2026-04-28 13:42 | 25.10487 | 102.92298 | 6912 ft | 8 kts | 233° |
| 2026-04-28 13:43 | 25.10445 | 102.92257 | 6912 ft | 7 kts | 219° |
| 2026-04-28 13:43 | 25.10403 | 102.92221 | 6912 ft | 7 kts | 218° |
| 2026-04-28 13:43 | 25.10361 | 102.92184 | 6912 ft | 9 kts | 218° |
| 2026-04-28 13:43 | 25.10298 | 102.92130 | 6912 ft | 13 kts | 218° |
| 2026-04-28 13:44 | 25.10225 | 102.92066 | 6912 ft | 13 kts | 218° |
| 2026-04-28 13:44 | 25.10146 | 102.91997 | 6912 ft | 14 kts | 218° |
| 2026-04-28 13:44 | 25.10087 | 102.91921 | 6912 ft | 12 kts | 275° |
| 2026-04-28 13:44 | 25.10134 | 102.91841 | 6912 ft | 10 kts | 309° |
| 2026-04-28 13:45 | 25.10175 | 102.91785 | 6912 ft | 9 kts | 309° |
| 2026-04-28 13:45 | 25.10218 | 102.91725 | 6912 ft | 10 kts | 317° |
| 2026-04-28 13:45 | 25.10280 | 102.91746 | 6912 ft | 10 kts | 37° |
| 2026-04-28 13:45 | 25.10306 | 102.91768 | 6912 ft | 0 kts | 38° |
| 2026-04-28 13:46 | 25.10312 | 102.91773 | 6912 ft | 3 kts | 38° |
| 2026-04-28 13:46 | 25.10348 | 102.91805 | 6912 ft | 7 kts | 38° |
| 2026-04-28 13:46 | 25.10373 | 102.91825 | 6912 ft | 21 kts | 39° |
| 2026-04-28 13:46 | 25.10691 | 102.92104 | 6912 ft | 93 kts | 39° |
| 2026-04-28 13:47 | 25.11376 | 102.92699 | 6912 ft | 155 kts | 39° |
| 2026-04-28 13:47 | 25.12346 | 102.93552 | 7063 ft | 192 kts | 40° |
| 2026-04-28 13:47 | 25.13430 | 102.94467 | 7801 ft | 198 kts | 36° |
| 2026-04-28 13:47 | 25.14692 | 102.95162 | 8398 ft | 212 kts | 22° |
| 2026-04-28 13:48 | 25.16140 | 102.95737 | 8892 ft | 227 kts | 22° |
| 2026-04-28 13:48 | 25.17640 | 102.96382 | 9386 ft | 239 kts | 25° |
| 2026-04-28 13:48 | 25.19205 | 102.97110 | 9842 ft | 253 kts | 25° |
| 2026-04-28 13:48 | 25.20890 | 102.97910 | 10290 ft | 267 kts | 25° |
| 2026-04-28 13:49 | 25.22599 | 102.98714 | 10933 ft | 273 kts | 24° |
| 2026-04-28 13:49 | 25.24369 | 102.99539 | 11536 ft | 279 kts | 22° |
| 2026-04-28 13:49 | 25.26182 | 103.00382 | 12142 ft | 285 kts | 22° |
| 2026-04-28 13:49 | 25.28024 | 103.01254 | 12763 ft | 290 kts | 22° |
| 2026-04-28 13:50 | 25.29893 | 103.02039 | 13348 ft | 294 kts | 13° |
| 2026-04-28 13:50 | 25.31918 | 103.02246 | 13923 ft | 292 kts | 347° |
| 2026-04-28 13:50 | 25.33722 | 103.01358 | 14559 ft | 283 kts | 315° |
| 2026-04-28 13:50 | 25.34771 | 102.99588 | 15187 ft | 276 kts | 283° |
| 2026-04-28 13:51 | 25.34761 | 102.97504 | 15751 ft | 276 kts | 252° |
| 2026-04-28 13:51 | 25.33689 | 102.95766 | 16342 ft | 281 kts | 221° |
| 2026-04-28 13:51 | 25.31959 | 102.94785 | 16911 ft | 287 kts | 204° |
| 2026-04-28 13:51 | 25.30050 | 102.94077 | 17433 ft | 291 kts | 202° |
| 2026-04-28 13:52 | 25.28131 | 102.93340 | 17918 ft | 294 kts | 204° |
| 2026-04-28 13:52 | 25.26232 | 102.92460 | 18442 ft | 293 kts | 213° |
| 2026-04-28 13:52 | 25.24660 | 102.91093 | 18836 ft | 292 kts | 232° |
| 2026-04-28 13:52 | 25.23552 | 102.89210 | 19279 ft | 292 kts | 246° |
| 2026-04-28 13:53 | 25.22802 | 102.87142 | 19806 ft | 292 kts | 252° |
| 2026-04-28 13:53 | 25.22092 | 102.85046 | 20282 ft | 295 kts | 246° |
| 2026-04-28 13:53 | 25.21060 | 102.83076 | 20700 ft | 299 kts | 242° |
| 2026-04-28 13:53 | 25.20067 | 102.81073 | 21195 ft | 298 kts | 245° |
| 2026-04-28 13:54 | 25.19171 | 102.79004 | 21671 ft | 298 kts | 247° |
| 2026-04-28 13:54 | 25.18312 | 102.76907 | 22054 ft | 301 kts | 249° |
| 2026-04-28 13:54 | 25.17486 | 102.74781 | 22363 ft | 307 kts | 249° |
| 2026-04-28 13:54 | 25.16634 | 102.72597 | 22748 ft | 310 kts | 249° |
| 2026-04-28 13:55 | 25.15803 | 102.70445 | 23295 ft | 306 kts | 249° |
| 2026-04-28 13:55 | 25.14933 | 102.68304 | 23755 ft | 306 kts | 247° |
| 2026-04-28 13:55 | 25.14024 | 102.66170 | 24112 ft | 309 kts | 247° |
| 2026-04-28 13:55 | 25.13115 | 102.63995 | 24424 ft | 314 kts | 248° |
| 2026-04-28 13:56 | 25.12219 | 102.61820 | 24832 ft | 315 kts | 247° |
| 2026-04-28 13:56 | 25.11313 | 102.59619 | 25248 ft | 315 kts | 247° |
| 2026-04-28 13:56 | 25.10401 | 102.57411 | 25566 ft | 319 kts | 247° |
| 2026-04-28 13:56 | 25.09792 | 102.55936 | 25783 ft | 321 kts | 247° |
| 2026-04-28 13:57 | 25.08552 | 102.52947 | 26374 ft | 321 kts | 246° |
| 2026-04-28 13:57 | 25.07598 | 102.50714 | 26712 ft | 324 kts | 245° |
| 2026-04-28 13:57 | 25.06574 | 102.48503 | 27092 ft | 325 kts | 244° |
| 2026-04-28 13:57 | 25.05508 | 102.46295 | 27413 ft | 328 kts | 244° |
| 2026-04-28 13:58 | 25.04611 | 102.44006 | 27803 ft | 327 kts | 253° |
| 2026-04-28 13:58 | 25.04172 | 102.41529 | 28146 ft | 329 kts | 265° |
| 2026-04-28 13:58 | 25.04251 | 102.39015 | 28418 ft | 333 kts | 277° |
| 2026-04-28 13:58 | 25.04851 | 102.36552 | 28711 ft | 338 kts | 289° |
| 2026-04-28 13:59 | 25.05901 | 102.34186 | 29010 ft | 342 kts | 295° |
| 2026-04-28 13:59 | 25.07056 | 102.31902 | 29419 ft | 341 kts | 295° |
| 2026-04-28 13:59 | 25.08133 | 102.29610 | 29798 ft | 339 kts | 292° |
| 2026-04-28 13:59 | 25.09085 | 102.27227 | 30244 ft | 335 kts | 289° |
| 2026-04-28 14:00 | 25.09924 | 102.24858 | 30714 ft | 330 kts | 287° |
| 2026-04-28 14:00 | 25.10690 | 102.22511 | 31169 ft | 326 kts | 287° |
| 2026-04-28 14:00 | 25.11421 | 102.20135 | 31309 ft | 333 kts | 285° |
| 2026-04-28 14:00 | 25.12148 | 102.17685 | 31521 ft | 338 kts | 286° |
| 2026-04-28 14:01 | 25.12872 | 102.15195 | 31771 ft | 342 kts | 285° |
| 2026-04-28 14:01 | 25.13586 | 102.12708 | 32101 ft | 343 kts | 286° |
| 2026-04-28 14:01 | 25.14312 | 102.10199 | 32240 ft | 348 kts | 285° |
| 2026-04-28 14:01 | 25.15060 | 102.07616 | 32246 ft | 357 kts | 285° |
| 2026-04-28 14:02 | 25.16596 | 102.02291 | 32245 ft | 374 kts | 285° |
| 2026-04-28 14:02 | 25.18202 | 101.96704 | 32244 ft | 391 kts | 285° |
| 2026-04-28 14:03 | 25.19881 | 101.90856 | 32248 ft | 408 kts | 285° |
| 2026-04-28 14:03 | 25.21615 | 101.84804 | 32268 ft | 416 kts | 285° |
| 2026-04-28 14:04 | 25.23363 | 101.78708 | 32291 ft | 425 kts | 285° |
| 2026-04-28 14:04 | 25.25172 | 101.72366 | 32303 ft | 438 kts | 285° |
| 2026-04-28 14:05 | 25.26994 | 101.65986 | 32288 ft | 436 kts | 286° |
| 2026-04-28 14:05 | 25.28831 | 101.59542 | 32272 ft | 443 kts | 285° |
| 2026-04-28 14:06 | 25.30661 | 101.53110 | 32260 ft | 442 kts | 286° |
| 2026-04-28 14:06 | 25.32494 | 101.46649 | 32258 ft | 441 kts | 285° |
| 2026-04-28 14:07 | 25.34325 | 101.40181 | 32266 ft | 441 kts | 285° |
| 2026-04-28 14:07 | 25.36162 | 101.33732 | 32264 ft | 441 kts | 287° |
| 2026-04-28 14:08 | 25.37486 | 101.30699 | 32249 ft | 445 kts | 301° |
| 2026-04-28 14:08 | 25.39636 | 101.28189 | 32267 ft | 455 kts | 318° |
| 2026-04-28 14:08 | 25.44073 | 101.24944 | 32271 ft | 459 kts | 324° |
| 2026-04-28 14:09 | 25.50434 | 101.20692 | 32256 ft | 456 kts | 324° |
| 2026-04-28 14:09 | 25.55884 | 101.17017 | 32269 ft | 459 kts | 323° |
| 2026-04-28 14:10 | 25.61273 | 101.13322 | 32269 ft | 458 kts | 323° |
| 2026-04-28 14:10 | 25.66664 | 101.09578 | 32269 ft | 457 kts | 322° |
| 2026-04-28 14:11 | 25.72012 | 101.05843 | 32283 ft | 455 kts | 322° |
| 2026-04-28 14:11 | 25.77377 | 101.02080 | 32297 ft | 454 kts | 322° |
| 2026-04-28 14:12 | 25.82713 | 100.98330 | 32309 ft | 453 kts | 322° |
| 2026-04-28 14:12 | 25.88062 | 100.94559 | 32318 ft | 454 kts | 322° |
| 2026-04-28 14:13 | 25.93377 | 100.90814 | 32337 ft | 452 kts | 322° |
| 2026-04-28 14:13 | 25.98663 | 100.87088 | 32345 ft | 450 kts | 322° |
| 2026-04-28 14:14 | 26.03993 | 100.83332 | 32005 ft | 452 kts | 322° |
| 2026-04-28 14:14 | 26.06621 | 100.81478 | 31267 ft | 451 kts | 323° |
| 2026-04-28 14:14 | 26.09262 | 100.79610 | 30895 ft | 441 kts | 322° |
| 2026-04-28 14:15 | 26.11817 | 100.77805 | 30679 ft | 429 kts | 323° |
| 2026-04-28 14:15 | 26.14291 | 100.76061 | 30379 ft | 421 kts | 324° |
| 2026-04-28 14:15 | 26.16886 | 100.74509 | 29674 ft | 427 kts | 334° |
| 2026-04-28 14:15 | 26.19749 | 100.73634 | 28970 ft | 434 kts | 348° |
| 2026-04-28 14:16 | 26.22783 | 100.73338 | 28422 ft | 433 kts | 355° |
| 2026-04-28 14:16 | 26.25772 | 100.73272 | 27921 ft | 430 kts | 356° |
| 2026-04-28 14:16 | 26.28752 | 100.73274 | 27450 ft | 426 kts | 357° |
| 2026-04-28 14:16 | 26.31718 | 100.73275 | 26934 ft | 422 kts | 357° |
| 2026-04-28 14:17 | 26.34627 | 100.73251 | 26474 ft | 417 kts | 356° |
| 2026-04-28 14:17 | 26.37494 | 100.73197 | 25968 ft | 413 kts | 356° |
| 2026-04-28 14:17 | 26.40399 | 100.73115 | 25452 ft | 409 kts | 355° |
| 2026-04-28 14:17 | 26.43212 | 100.73016 | 24971 ft | 405 kts | 355° |
| 2026-04-28 14:18 | 26.46018 | 100.72906 | 24442 ft | 403 kts | 355° |
| 2026-04-28 14:18 | 26.48834 | 100.72787 | 23914 ft | 400 kts | 355° |
| 2026-04-28 14:18 | 26.51605 | 100.72666 | 23430 ft | 396 kts | 355° |
| 2026-04-28 14:18 | 26.54289 | 100.72546 | 23215 ft | 385 kts | 355° |
| 2026-04-28 14:19 | 26.56937 | 100.72426 | 23101 ft | 371 kts | 355° |
| 2026-04-28 14:19 | 26.59483 | 100.72310 | 23031 ft | 357 kts | 354° |
| 2026-04-28 14:19 | 26.61923 | 100.72196 | 22763 ft | 350 kts | 354° |
| 2026-04-28 14:19 | 26.64344 | 100.71901 | 22252 ft | 349 kts | 345° |
| 2026-04-28 14:20 | 26.66659 | 100.71116 | 21734 ft | 346 kts | 334° |
| 2026-04-28 14:20 | 26.68745 | 100.69806 | 21221 ft | 343 kts | 322° |
| 2026-04-28 14:20 | 26.70535 | 100.68099 | 20697 ft | 340 kts | 314° |
| 2026-04-28 14:20 | 26.72161 | 100.66206 | 20145 ft | 333 kts | 311° |
| 2026-04-28 14:21 | 26.73693 | 100.64304 | 19574 ft | 328 kts | 311° |
| 2026-04-28 14:21 | 26.75191 | 100.62436 | 19009 ft | 323 kts | 311° |
| 2026-04-28 14:21 | 26.76700 | 100.60573 | 18436 ft | 319 kts | 312° |
| 2026-04-28 14:21 | 26.78184 | 100.58764 | 17870 ft | 315 kts | 313° |
| 2026-04-28 14:22 | 26.79650 | 100.56998 | 17252 ft | 313 kts | 313° |
| 2026-04-28 14:22 | 26.81156 | 100.55202 | 16514 ft | 315 kts | 314° |
| 2026-04-28 14:22 | 26.82649 | 100.53434 | 15787 ft | 316 kts | 314° |
| 2026-04-28 14:22 | 26.84148 | 100.51665 | 15056 ft | 317 kts | 314° |
| 2026-04-28 14:23 | 26.85680 | 100.49860 | 14314 ft | 318 kts | 314° |
| 2026-04-28 14:23 | 26.87182 | 100.48089 | 13656 ft | 315 kts | 315° |
| 2026-04-28 14:23 | 26.88613 | 100.46391 | 13794 ft | 284 kts | 315° |
| 2026-04-28 14:23 | 26.89926 | 100.44827 | 13892 ft | 262 kts | 315° |
| 2026-04-28 14:24 | 26.91122 | 100.43415 | 13911 ft | 240 kts | 316° |
| 2026-04-28 14:24 | 26.92261 | 100.42094 | 13902 ft | 231 kts | 316° |
| 2026-04-28 14:24 | 26.93333 | 100.40863 | 13897 ft | 214 kts | 316° |
| 2026-04-28 14:24 | 26.94371 | 100.39671 | 13913 ft | 211 kts | 316° |
| 2026-04-28 14:25 | 26.95347 | 100.38448 | 13900 ft | 212 kts | 304° |
| 2026-04-28 14:25 | 26.95818 | 100.36887 | 13705 ft | 219 kts | 274° |
| 2026-04-28 14:25 | 26.95578 | 100.35197 | 13466 ft | 218 kts | 252° |
| 2026-04-28 14:25 | 26.94925 | 100.33691 | 13283 ft | 217 kts | 235° |
| 2026-04-28 14:26 | 26.93793 | 100.32558 | 13210 ft | 219 kts | 205° |
| 2026-04-28 14:26 | 26.92308 | 100.32147 | 13039 ft | 222 kts | 180° |
| 2026-04-28 14:26 | 26.90765 | 100.32122 | 12635 ft | 226 kts | 183° |
| 2026-04-28 14:26 | 26.89204 | 100.31831 | 12267 ft | 225 kts | 194° |
| 2026-04-28 14:27 | 26.87732 | 100.31335 | 11929 ft | 222 kts | 198° |
| 2026-04-28 14:27 | 26.86260 | 100.30804 | 11580 ft | 219 kts | 197° |
| 2026-04-28 14:27 | 26.84849 | 100.30278 | 11302 ft | 213 kts | 199° |
| 2026-04-28 14:27 | 26.83454 | 100.29736 | 10920 ft | 213 kts | 198° |
| 2026-04-28 14:28 | 26.82044 | 100.29228 | 10588 ft | 211 kts | 197° |
| 2026-04-28 14:28 | 26.80641 | 100.28755 | 10257 ft | 208 kts | 197° |
| 2026-04-28 14:28 | 26.79282 | 100.28305 | 9937 ft | 198 kts | 197° |
| 2026-04-28 14:28 | 26.77964 | 100.27868 | 9649 ft | 194 kts | 197° |
| 2026-04-28 14:29 | 26.76741 | 100.27463 | 9509 ft | 178 kts | 197° |
| 2026-04-28 14:29 | 26.75539 | 100.27098 | 8985 ft | 186 kts | 193° |
| 2026-04-28 14:29 | 26.74295 | 100.26721 | 8537 ft | 184 kts | 196° |
| 2026-04-28 14:29 | 26.73088 | 100.26324 | 8169 ft | 179 kts | 197° |
| 2026-04-28 14:30 | 26.71946 | 100.25931 | 7976 ft | 167 kts | 197° |
| 2026-04-28 14:30 | 26.70829 | 100.25542 | 7752 ft | 166 kts | 197° |
| 2026-04-28 14:30 | 26.69720 | 100.25172 | 7573 ft | 165 kts | 198° |
| 2026-04-28 14:30 | 26.68642 | 100.24798 | 7395 ft | 158 kts | 198° |
| 2026-04-28 14:31 | 26.67776 | 100.24504 | 7394 ft | 93 kts | 197° |
| 2026-04-28 14:31 | 26.67365 | 100.24364 | 7394 ft | 32 kts | 197° |
| 2026-04-28 14:31 | 26.67213 | 100.24336 | 7395 ft | 10 kts | 139° |
| 2026-04-28 14:31 | 26.67185 | 100.24416 | 7395 ft | 11 kts | 106° |
| 2026-04-28 14:32 | 26.67148 | 100.24469 | 7395 ft | 10 kts | 214° |
| 2026-04-28 14:32 | 26.67070 | 100.24448 | 7395 ft | 13 kts | 179° |
| 2026-04-28 14:32 | 26.66999 | 100.24493 | 7395 ft | 7 kts | 62° |
| 2026-04-28 14:32 | 26.67033 | 100.24530 | 7395 ft | 7 kts | 103° |
| 2026-04-28 14:33 | 26.66996 | 100.24545 | 7395 ft | 7 kts | 194° |
| 2026-04-28 14:33 | 26.66976 | 100.24539 | 7395 ft | 0 kts | 195° |
| 2026-04-28 14:33 | 26.66974 | 100.24538 | 7395 ft | 0 kts | 197° |